Time,TemperatureF,DewpointF,PressureIn,WindDirection,WindDirectionDegrees,WindSpeedMPH,WindSpeedGustMPH,Humidity,HourlyPrecipIn,Conditions,Clouds,dailyrainin,SolarRadiationWatts/m^2,SoftwareType,DateUTC
2013-05-16 00:01:00,48.0,41.0,-100.00,ESE,118,1.0,6.0,78,0.00,,,0.00,0.000000,,2013-05-16 06:01:00,
2013-05-16 00:12:00,48.0,41.0,-100.00,ESE,118,1.0,6.0,78,0.00,,,0.00,0.000000,,2013-05-16 06:12:00,
2013-05-16 00:43:00,45.0,41.0,-100.00,WSW,247,0.0,4.0,86,0.00,,,0.00,0.000000,,2013-05-16 06:43:00,
2013-05-16 00:53:00,45.0,41.0,-100.00,WSW,247,0.0,4.0,86,0.00,,,0.00,0.000000,,2013-05-16 06:53:00,
2013-05-16 01:02:00,45.0,41.0,-100.00,WSW,247,0.0,4.0,86,0.00,,,0.00,0.000000,,2013-05-16 07:02:00,
2013-05-16 01:12:00,45.0,41.0,-100.00,WSW,247,0.0,4.0,86,0.00,,,0.00,0.000000,,2013-05-16 07:12:00,
2013-05-16 01:34:00,43.0,40.0,-100.00,SSE,154,1.0,5.0,88,0.00,,,0.00,0.000000,,2013-05-16 07:34:00,
2013-05-16 01:44:00,43.0,40.0,-100.00,SSE,154,1.0,5.0,88,0.00,,,0.00,0.000000,,2013-05-16 07:44:00,
2013-05-16 01:54:00,43.0,40.0,-100.00,SSE,154,1.0,5.0,88,0.00,,,0.00,0.000000,,2013-05-16 07:54:00,
2013-05-16 02:03:00,43.0,40.0,-100.00,SSE,154,1.0,5.0,88,0.00,,,0.00,0.000000,,2013-05-16 08:03:00,
2013-05-16 02:13:00,43.0,40.0,-100.00,SSE,154,1.0,5.0,88,0.00,,,0.00,0.000000,,2013-05-16 08:13:00,
2013-05-16 02:14:00,42.0,41.0,-100.00,WSW,242,2.0,5.0,95,0.00,,,0.00,0.000000,,2013-05-16 08:14:00,
2013-05-16 02:45:00,42.0,41.0,-100.00,WSW,242,2.0,5.0,95,0.00,,,0.00,0.000000,,2013-05-16 08:45:00,
2013-05-16 02:55:00,42.0,41.0,-100.00,WSW,242,2.0,5.0,95,0.00,,,0.00,0.000000,,2013-05-16 08:55:00,
2013-05-16 03:04:00,42.0,41.0,-100.00,WSW,242,2.0,5.0,95,0.00,,,0.00,0.000000,,2013-05-16 09:04:00,
2013-05-16 03:14:00,42.0,41.0,-100.00,ESE,114,3.0,4.0,95,0.00,,,0.00,0.000000,,2013-05-16 09:14:00,
2013-05-16 03:45:00,42.0,41.0,-100.00,ESE,114,3.0,4.0,95,0.00,,,0.00,0.000000,,2013-05-16 09:45:00,
2013-05-16 03:55:00,42.0,41.0,-100.00,ESE,114,3.0,4.0,95,0.00,,,0.00,0.000000,,2013-05-16 09:55:00,
2013-05-16 04:04:00,42.0,41.0,-100.00,ESE,114,3.0,4.0,95,0.00,,,0.00,0.000000,,2013-05-16 10:04:00,
2013-05-16 04:14:00,42.0,41.0,-100.00,East,92,1.0,5.0,96,0.00,,,0.00,0.000000,,2013-05-16 10:14:00,
2013-05-16 04:36:00,42.0,41.0,-100.00,East,92,1.0,5.0,96,0.00,,,0.00,0.000000,,2013-05-16 10:36:00,
2013-05-16 04:45:00,42.0,41.0,-100.00,East,92,1.0,5.0,96,0.00,,,0.00,0.000000,,2013-05-16 10:45:00,
2013-05-16 04:56:00,42.0,41.0,-100.00,East,92,1.0,5.0,96,0.00,,,0.00,0.000000,,2013-05-16 10:56:00,
2013-05-16 05:05:00,42.0,41.0,-100.00,East,92,1.0,5.0,96,0.00,,,0.00,0.000000,,2013-05-16 11:05:00,
2013-05-16 05:35:00,44.0,42.0,-100.00,NNW,328,1.0,7.0,93,0.00,,,0.00,0.000000,,2013-05-16 11:35:00,
2013-05-16 05:46:00,44.0,42.0,-100.00,NNW,328,1.0,7.0,93,0.00,,,0.00,0.000000,,2013-05-16 11:46:00,
2013-05-16 05:56:00,44.0,42.0,-100.00,NNW,328,1.0,7.0,93,0.00,,,0.00,0.000000,,2013-05-16 11:56:00,
2013-05-16 06:06:00,44.0,42.0,-100.00,NNW,328,1.0,7.0,93,0.00,,,0.00,0.000000,,2013-05-16 12:06:00,
2013-05-16 06:13:00,44.0,42.0,-100.00,NNW,328,1.0,7.0,93,0.00,,,0.00,0.000000,,2013-05-16 12:13:00,
2013-05-16 06:35:00,44.0,42.0,-100.00,NE,50,2.0,4.0,93,0.00,,,0.00,0.000000,,2013-05-16 12:35:00,
2013-05-16 06:45:00,44.0,42.0,-100.00,NE,50,2.0,4.0,93,0.00,,,0.00,0.000000,,2013-05-16 12:45:00,
2013-05-16 06:53:00,44.0,42.0,-100.00,NE,50,2.0,4.0,93,0.00,,,0.00,0.000000,,2013-05-16 12:53:00,
2013-05-16 07:04:00,44.0,42.0,-100.00,NE,50,2.0,4.0,93,0.00,,,0.00,0.000000,,2013-05-16 13:04:00,
2013-05-16 07:12:00,44.0,42.0,-100.00,NE,50,2.0,4.0,93,0.00,,,0.00,0.000000,,2013-05-16 13:12:00,
2013-05-16 07:14:00,45.0,44.0,-100.00,NNE,31,2.0,5.0,95,0.00,,,-99.99,21.000000,,2013-05-16 13:14:00,
2013-05-16 07:44:00,45.0,44.0,-100.00,NNE,31,2.0,5.0,95,0.00,,,-99.99,21.000000,,2013-05-16 13:44:00,
2013-05-16 07:55:00,45.0,44.0,-100.00,NNE,31,2.0,5.0,95,0.00,,,-99.99,21.000000,,2013-05-16 13:55:00,
2013-05-16 08:05:00,45.0,44.0,-100.00,NNE,31,2.0,5.0,95,0.00,,,-99.99,21.000000,,2013-05-16 14:05:00,
2013-05-16 08:14:00,46.0,44.0,-100.00,West,274,1.0,4.0,93,0.00,,,0.00,41.000000,,2013-05-16 14:14:00,
2013-05-16 08:47:00,46.0,44.0,-100.00,West,274,1.0,4.0,93,0.00,,,0.00,41.000000,,2013-05-16 14:47:00,
2013-05-16 08:56:00,46.0,44.0,-100.00,West,274,1.0,4.0,93,0.00,,,0.00,41.000000,,2013-05-16 14:56:00,
2013-05-16 09:08:00,46.0,44.0,-100.00,West,274,1.0,4.0,93,0.00,,,0.00,41.000000,,2013-05-16 15:08:00,
2013-05-16 09:14:00,48.0,45.0,-100.00,NNE,33,6.0,9.0,90,0.00,,,0.00,106.000000,,2013-05-16 15:14:00,
2013-05-16 09:40:00,48.0,45.0,-100.00,NNE,33,6.0,9.0,90,0.00,,,0.00,106.000000,,2013-05-16 15:40:00,
2013-05-16 09:50:00,48.0,45.0,-100.00,NNE,33,6.0,9.0,90,0.00,,,0.00,106.000000,,2013-05-16 15:50:00,
2013-05-16 10:00:00,48.0,45.0,-100.00,NNE,33,6.0,9.0,90,0.00,,,0.00,106.000000,,2013-05-16 16:00:00,
2013-05-16 10:09:00,48.0,45.0,-100.00,NNE,33,6.0,9.0,90,0.00,,,0.00,106.000000,,2013-05-16 16:09:00,
2013-05-16 10:14:00,50.0,47.0,-100.00,NNE,19,6.0,9.0,89,0.02,,,0.02,195.000000,,2013-05-16 16:14:00,
2013-05-16 10:51:00,50.0,47.0,-100.00,NNE,19,6.0,9.0,89,0.02,,,0.02,195.000000,,2013-05-16 16:51:00,
2013-05-16 11:00:00,50.0,47.0,-100.00,NNE,19,6.0,9.0,89,0.02,,,0.02,195.000000,,2013-05-16 17:00:00,
2013-05-16 11:10:00,50.0,47.0,-100.00,NNE,19,6.0,9.0,89,0.02,,,0.02,195.000000,,2013-05-16 17:10:00,
2013-05-16 11:14:00,50.0,45.0,-100.00,NNE,31,10.0,13.0,83,0.00,,,0.02,253.000000,,2013-05-16 17:14:00,
2013-05-16 11:50:00,-999.0,-99.9,-100.00,NNE,31,10.0,13.0,83,0.00,,,0.02,253.000000,,2013-05-16 17:50:00,
2013-05-16 12:00:00,-999.0,-99.9,-100.00,NNE,31,10.0,13.0,83,0.00,,,0.02,253.000000,,2013-05-16 18:00:00,
2013-05-16 12:10:00,50.0,45.0,-100.00,NNE,31,10.0,13.0,83,0.00,,,0.02,253.000000,,2013-05-16 18:10:00,
2013-05-16 12:14:00,54.0,48.0,-100.00,NNE,20,8.0,14.0,80,0.00,,,0.02,416.000000,,2013-05-16 18:14:00,
2013-05-16 12:41:00,-999.0,-99.9,-100.00,NNE,20,8.0,14.0,80,0.00,,,0.02,416.000000,,2013-05-16 18:41:00,
2013-05-16 12:50:00,-999.0,-99.9,-100.00,NNE,20,8.0,14.0,80,0.00,,,0.02,416.000000,,2013-05-16 18:50:00,
2013-05-16 13:00:00,-999.0,-99.9,-100.00,NNE,20,8.0,14.0,80,0.00,,,0.02,416.000000,,2013-05-16 19:00:00,
2013-05-16 13:10:00,54.0,48.0,-100.00,NNE,20,8.0,14.0,80,0.00,,,0.02,416.000000,,2013-05-16 19:10:00,
2013-05-16 13:14:00,58.0,-99.9,-100.00,NNE,22,4.0,12.0,65,0.00,,,0.02,742.000000,,2013-05-16 19:14:00,
2013-05-16 13:51:00,-999.0,-99.9,-100.00,NNE,22,4.0,12.0,65,0.00,,,0.02,742.000000,,2013-05-16 19:51:00,
2013-05-16 14:00:00,-999.0,-99.9,-100.00,NNE,22,4.0,12.0,65,0.00,,,0.02,742.000000,,2013-05-16 20:00:00,
2013-05-16 14:10:00,-999.0,-99.9,-100.00,NNE,22,4.0,12.0,65,0.00,,,0.02,742.000000,,2013-05-16 20:10:00,
2013-05-16 14:14:00,61.0,43.0,-100.00,North,356,4.0,9.0,51,0.00,,,0.02,854.000000,,2013-05-16 20:14:00,
2013-05-16 14:51:00,61.0,43.0,-100.00,North,356,4.0,9.0,51,0.00,,,0.02,854.000000,,2013-05-16 20:51:00,
2013-05-16 15:00:00,61.0,-99.9,-100.00,North,356,4.0,9.0,51,0.00,,,0.02,854.000000,,2013-05-16 21:00:00,
2013-05-16 15:10:00,61.0,-99.9,-100.00,North,356,4.0,9.0,51,0.00,,,0.02,854.000000,,2013-05-16 21:10:00,
2013-05-16 15:14:00,62.0,44.0,-100.00,NE,40,4.0,8.0,51,0.00,,,0.02,564.000000,,2013-05-16 21:14:00,
2013-05-16 16:00:00,-999.0,-99.9,-100.00,NE,40,4.0,8.0,51,0.00,,,0.02,564.000000,,2013-05-16 22:00:00,
2013-05-16 16:08:00,62.0,44.0,-100.00,NE,40,4.0,8.0,51,0.00,,,0.02,564.000000,,2013-05-16 22:08:00,
2013-05-16 16:14:00,63.0,41.0,-100.00,NNW,328,3.0,8.0,44,0.00,,,0.02,589.000000,,2013-05-16 22:14:00,
2013-05-16 16:40:00,63.0,41.0,-100.00,NNW,328,3.0,8.0,44,0.00,,,0.02,589.000000,,2013-05-16 22:40:00,
2013-05-16 16:51:00,63.0,41.0,-100.00,NNW,328,3.0,8.0,44,0.00,,,0.02,589.000000,,2013-05-16 22:51:00,
2013-05-16 17:01:00,63.0,41.0,-100.00,NNW,328,3.0,8.0,44,0.00,,,0.02,589.000000,,2013-05-16 23:01:00,
2013-05-16 17:06:00,63.0,41.0,-100.00,NNW,328,3.0,8.0,44,0.00,,,0.02,589.000000,,2013-05-16 23:06:00,
2013-05-16 17:35:00,64.0,43.0,-100.00,NNE,29,4.0,8.0,46,0.00,,,0.02,542.000000,,2013-05-16 23:35:00,
2013-05-16 17:45:00,64.0,43.0,-100.00,NNE,29,4.0,8.0,46,0.00,,,0.02,542.000000,,2013-05-16 23:45:00,
2013-05-16 17:54:00,64.0,43.0,-100.00,NNE,29,4.0,8.0,46,0.00,,,0.02,542.000000,,2013-05-16 23:54:00,
2013-05-16 18:02:00,64.0,43.0,-100.00,NNE,29,4.0,8.0,46,0.00,,,0.02,542.000000,,2013-05-17 00:02:00,
2013-05-16 18:13:00,64.0,43.0,-100.00,NNE,29,4.0,8.0,46,0.00,,,0.02,542.000000,,2013-05-17 00:13:00,
2013-05-16 18:44:00,63.0,38.0,-100.00,NNE,12,2.0,6.0,39,0.00,,,-99.99,427.000000,,2013-05-17 00:44:00,
2013-05-16 18:53:00,63.0,38.0,-100.00,NNE,12,2.0,6.0,39,0.00,,,-99.99,427.000000,,2013-05-17 00:53:00,
2013-05-16 19:03:00,63.0,38.0,-100.00,NNE,12,2.0,6.0,39,0.00,,,-99.99,427.000000,,2013-05-17 01:03:00,
2013-05-16 19:12:00,63.0,38.0,-100.00,NNE,12,2.0,6.0,39,0.00,,,-99.99,427.000000,,2013-05-17 01:12:00,
2013-05-16 19:44:00,65.0,39.0,-100.00,NW,322,1.0,3.0,39,0.00,,,0.02,268.000000,,2013-05-17 01:44:00,
2013-05-16 19:52:00,65.0,39.0,-100.00,NW,322,1.0,3.0,39,0.00,,,0.02,268.000000,,2013-05-17 01:52:00,
2013-05-16 20:02:00,65.0,39.0,-100.00,NW,322,1.0,3.0,39,0.00,,,0.02,268.000000,,2013-05-17 02:02:00,
2013-05-16 20:11:00,65.0,39.0,-100.00,NW,322,1.0,3.0,39,0.00,,,0.02,268.000000,,2013-05-17 02:11:00,
2013-05-16 20:33:00,58.0,41.0,-100.00,NW,318,1.0,3.0,54,0.00,,,0.02,123.000000,,2013-05-17 02:33:00,
2013-05-16 20:42:00,58.0,41.0,-100.00,NW,318,1.0,3.0,54,0.00,,,0.02,123.000000,,2013-05-17 02:42:00,
2013-05-16 20:53:00,58.0,41.0,-100.00,NW,318,1.0,3.0,54,0.00,,,0.02,123.000000,,2013-05-17 02:53:00,
2013-05-16 21:01:00,58.0,41.0,-100.00,NW,318,1.0,3.0,54,0.00,,,0.02,123.000000,,2013-05-17 03:01:00,
2013-05-16 21:11:00,58.0,41.0,-100.00,NW,318,1.0,3.0,54,0.00,,,0.02,123.000000,,2013-05-17 03:11:00,
2013-05-16 21:34:00,49.0,42.0,-100.00,NE,54,0.0,0.0,76,0.00,,,0.02,22.000000,,2013-05-17 03:34:00,
2013-05-16 21:43:00,49.0,42.0,-100.00,NE,54,0.0,0.0,76,0.00,,,0.02,22.000000,,2013-05-17 03:43:00,
2013-05-16 21:53:00,49.0,42.0,-100.00,NE,54,0.0,0.0,76,0.00,,,0.02,22.000000,,2013-05-17 03:53:00,
2013-05-16 22:02:00,49.0,42.0,-100.00,NE,54,0.0,0.0,76,0.00,,,0.02,22.000000,,2013-05-17 04:02:00,
2013-05-16 22:13:00,49.0,42.0,-100.00,NE,54,0.0,0.0,76,0.00,,,0.02,22.000000,,2013-05-17 04:13:00,
2013-05-16 22:34:00,47.0,41.0,-100.00,SE,124,4.0,5.0,78,0.00,,,0.02,0.000000,,2013-05-17 04:34:00,
2013-05-16 22:43:00,47.0,41.0,-100.00,SE,124,4.0,5.0,78,0.00,,,0.02,0.000000,,2013-05-17 04:43:00,
2013-05-16 22:53:00,47.0,41.0,-100.00,SE,124,4.0,5.0,78,0.00,,,0.02,0.000000,,2013-05-17 04:53:00,
2013-05-16 23:02:00,47.0,41.0,-100.00,SE,124,4.0,5.0,78,0.00,,,0.02,0.000000,,2013-05-17 05:02:00,
2013-05-16 23:13:00,47.0,41.0,-100.00,SE,124,4.0,5.0,78,0.00,,,0.02,0.000000,,2013-05-17 05:13:00,
2013-05-16 23:32:00,46.0,40.0,-100.00,NW,307,2.0,6.0,79,0.00,,,0.02,0.000000,,2013-05-17 05:32:00,
2013-05-16 23:43:00,46.0,40.0,-100.00,NW,307,2.0,6.0,79,0.00,,,0.02,0.000000,,2013-05-17 05:43:00,
2013-05-16 23:52:00,46.0,40.0,-100.00,NW,307,2.0,6.0,79,0.00,,,0.02,0.000000,,2013-05-17 05:52:00,